createdAt,value
2023-05-13T00:02:56.486Z,12.00
2023-05-13T00:07:48.270Z,12.10
2023-05-13T00:12:39.983Z,12.00
2023-05-13T00:17:31.691Z,12.10
2023-05-13T00:22:23.395Z,12.10
2023-05-13T00:27:15.111Z,12.30
2023-05-13T00:32:07.103Z,12.30
2023-05-13T00:36:58.813Z,12.30
2023-05-13T00:41:50.456Z,12.30
2023-05-13T00:46:42.740Z,12.30
2023-05-13T00:51:34.505Z,12.40
2023-05-13T00:56:27.033Z,12.40
2023-05-13T01:01:41.655Z,12.40
2023-05-13T01:07:14.661Z,12.30
2023-05-13T01:12:19.801Z,12.40
2023-05-13T01:17:41.328Z,12.30
2023-05-13T01:22:33.106Z,12.30
2023-05-13T01:27:25.876Z,12.30
2023-05-13T01:32:19.100Z,12.20
2023-05-13T01:37:10.913Z,12.10
2023-05-13T01:42:03.137Z,12.20
2023-05-13T01:46:55.359Z,12.10
2023-05-13T01:51:47.158Z,12.20
2023-05-13T01:56:39.073Z,12.20
2023-05-13T02:01:30.853Z,12.20
2023-05-13T02:06:22.673Z,12.20
2023-05-13T02:11:14.405Z,12.20
2023-05-13T02:16:06.284Z,12.10
2023-05-13T02:20:58.030Z,12.10
2023-05-13T02:25:49.702Z,12.10
2023-05-13T02:30:41.726Z,12.10
2023-05-13T02:35:33.461Z,12.20
2023-05-13T02:40:25.133Z,12.10
2023-05-13T02:45:16.968Z,12.20
2023-05-13T02:50:09.999Z,12.10
2023-05-13T02:55:03.031Z,12.10
2023-05-13T02:59:54.744Z,12.00
2023-05-13T03:04:47.224Z,12.00
2023-05-13T03:09:39.473Z,12.00
2023-05-13T03:14:31.327Z,12.00
2023-05-13T03:19:23.915Z,12.10
2023-05-13T03:24:15.624Z,12.10
2023-05-13T03:29:07.291Z,12.00
2023-05-13T03:33:58.997Z,12.00
2023-05-13T03:38:50.703Z,11.90
2023-05-13T03:43:42.403Z,12.00
2023-05-13T03:48:34.165Z,12.00
2023-05-13T03:53:25.863Z,12.00
2023-05-13T03:58:18.418Z,11.80
2023-05-13T04:03:10.490Z,11.80
2023-05-13T04:08:02.268Z,11.80
2023-05-13T04:12:54.070Z,11.80
2023-05-13T04:17:45.938Z,11.80
2023-05-13T04:22:37.701Z,11.90
2023-05-13T04:27:29.395Z,11.80
2023-05-13T04:32:24.033Z,11.80
2023-05-13T04:37:16.078Z,11.80
2023-05-13T04:42:07.946Z,11.90
2023-05-13T04:46:59.595Z,11.80
2023-05-13T04:51:51.314Z,12.00
2023-05-13T04:56:43.345Z,12.10
2023-05-13T05:01:35.155Z,12.20
2023-05-13T05:06:26.901Z,12.10
2023-05-13T05:11:18.594Z,12.20
2023-05-13T05:16:10.381Z,12.30
2023-05-13T05:21:02.965Z,12.30
2023-05-13T05:26:04.060Z,12.30
2023-05-13T05:31:02.803Z,12.30
2023-05-13T05:35:54.472Z,12.50
2023-05-13T05:40:46.407Z,12.60
2023-05-13T05:45:39.632Z,12.50
2023-05-13T05:50:32.595Z,12.60
2023-05-13T05:55:24.258Z,12.50
2023-05-13T06:00:16.533Z,12.60
2023-05-13T06:05:09.157Z,12.70
2023-05-13T06:10:01.404Z,12.70
2023-05-13T06:14:53.077Z,12.30
2023-05-13T06:19:44.753Z,12.40
2023-05-13T06:24:37.436Z,12.40
2023-05-13T06:29:29.565Z,12.70
2023-05-13T06:34:21.363Z,12.90
2023-05-13T06:39:13.637Z,13.00
2023-05-13T06:44:07.314Z,13.20
2023-05-13T06:48:59.408Z,13.30
2023-05-13T06:53:51.280Z,13.00
2023-05-13T06:58:42.969Z,13.20
2023-05-13T07:03:34.764Z,13.30
2023-05-13T07:08:26.471Z,13.10
2023-05-13T07:13:20.897Z,13.20
2023-05-13T07:18:12.831Z,13.20
2023-05-13T07:23:04.540Z,13.40
2023-05-13T07:27:56.255Z,13.50
2023-05-13T07:32:48.029Z,13.50
2023-05-13T07:37:40.043Z,13.50
2023-05-13T07:42:32.338Z,13.50
2023-05-13T07:47:24.154Z,13.70
2023-05-13T07:52:16.469Z,13.70
2023-05-13T07:57:08.150Z,13.80
2023-05-13T08:01:59.831Z,13.80
2023-05-13T08:06:51.495Z,13.90
2023-05-13T08:11:43.252Z,13.90
2023-05-13T08:16:38.624Z,14.00
2023-05-13T08:21:31.647Z,14.10
2023-05-13T08:26:23.463Z,14.30
2023-05-13T08:31:15.485Z,14.30
2023-05-13T08:36:08.020Z,14.10
2023-05-13T08:41:00.168Z,14.30
2023-05-13T08:45:54.721Z,14.10
2023-05-13T08:50:47.763Z,14.10
2023-05-13T08:55:40.431Z,14.00
2023-05-13T09:00:34.603Z,13.90
2023-05-13T09:05:27.030Z,13.70
2023-05-13T09:10:21.121Z,13.70
2023-05-13T09:15:16.756Z,13.70
2023-05-13T09:20:12.263Z,13.50
2023-05-13T09:25:04.402Z,13.40
2023-05-13T09:30:01.940Z,13.40
2023-05-13T09:34:53.679Z,13.50
2023-05-13T09:39:46.088Z,13.60
2023-05-13T09:44:38.598Z,13.70
2023-05-13T09:49:32.141Z,13.80
2023-05-13T09:54:23.820Z,13.80
2023-05-13T09:59:16.166Z,14.00
2023-05-13T10:04:08.772Z,13.90
2023-05-13T10:09:05.295Z,14.20
2023-05-13T10:14:02.930Z,14.60
2023-05-13T10:18:56.750Z,14.60
2023-05-13T10:23:53.158Z,14.70
2023-05-13T10:28:45.903Z,14.90
2023-05-13T10:33:37.660Z,14.60
2023-05-13T10:39:07.911Z,14.80
2023-05-13T10:43:59.854Z,14.80
2023-05-13T10:48:58.197Z,14.80
2023-05-13T10:53:55.842Z,14.90
2023-05-13T10:59:06.222Z,14.70
2023-05-13T11:04:01.542Z,14.80
2023-05-13T11:08:55.919Z,14.90
2023-05-13T11:14:23.817Z,14.80
2023-05-13T11:19:37.825Z,15.20
2023-05-13T11:24:29.703Z,14.90
2023-05-13T11:29:36.087Z,14.80
2023-05-13T11:34:28.221Z,14.80
2023-05-13T11:39:22.628Z,14.60
2023-05-13T11:44:18.553Z,14.30
2023-05-13T11:49:10.269Z,14.30
2023-05-13T11:54:03.616Z,14.40
2023-05-13T11:58:56.677Z,14.70
2023-05-13T12:03:48.454Z,14.30
2023-05-13T12:08:45.299Z,14.00
2023-05-13T12:13:37.136Z,14.30
2023-05-13T12:18:28.841Z,14.30
2023-05-13T12:23:20.538Z,14.10
2023-05-13T12:28:25.521Z,14.20
2023-05-13T12:33:20.922Z,14.20
2023-05-13T12:38:19.873Z,14.10
2023-05-13T12:43:13.061Z,14.20
2023-05-13T12:48:04.925Z,14.40
2023-05-13T12:53:02.766Z,14.10
2023-05-13T12:57:57.142Z,14.00
2023-05-13T13:02:49.227Z,14.00
2023-05-13T13:07:42.150Z,13.90
2023-05-13T13:12:33.889Z,13.90
2023-05-13T13:17:25.638Z,14.00
2023-05-13T13:22:17.347Z,14.00
2023-05-13T13:27:11.700Z,14.00
2023-05-13T13:32:03.611Z,14.30
2023-05-13T13:36:55.302Z,14.30
2023-05-13T13:41:47.182Z,14.30
2023-05-13T13:46:39.047Z,14.40
2023-05-13T13:51:30.803Z,14.20
2023-05-13T13:56:22.544Z,14.20
2023-05-13T14:01:15.512Z,14.20
2023-05-13T14:06:08.396Z,14.60
2023-05-13T14:11:00.255Z,14.90
2023-05-13T14:15:52.049Z,15.20
2023-05-13T14:20:43.819Z,15.20
2023-05-13T14:25:35.855Z,15.00
2023-05-13T14:30:27.742Z,14.70
2023-05-13T14:35:19.571Z,14.20
2023-05-13T14:40:11.359Z,14.10
2023-05-13T14:45:03.142Z,14.20
2023-05-13T14:49:54.812Z,14.20
2023-05-13T14:54:46.484Z,13.90
2023-05-13T14:59:38.151Z,14.10
2023-05-13T15:04:30.088Z,14.30
2023-05-13T15:09:22.103Z,14.00
2023-05-13T15:14:17.586Z,14.20
2023-05-13T15:19:09.460Z,14.50
2023-05-13T15:24:01.220Z,14.60
2023-05-13T15:28:52.888Z,14.50
2023-05-13T15:33:45.302Z,14.50
2023-05-13T15:38:37.401Z,14.40
2023-05-13T15:43:30.651Z,14.40
2023-05-13T15:48:22.425Z,14.20
2023-05-13T15:53:14.118Z,14.30
2023-05-13T15:58:06.874Z,14.50
2023-05-13T16:02:58.607Z,14.10
2023-05-13T16:07:50.521Z,14.40
2023-05-13T16:12:42.870Z,14.40
2023-05-13T16:17:35.709Z,14.40
2023-05-13T16:22:34.461Z,14.40
2023-05-13T16:27:26.919Z,14.30
2023-05-13T16:32:18.589Z,14.30
2023-05-13T16:37:10.259Z,14.50
2023-05-13T16:42:01.959Z,14.40
2023-05-13T16:46:53.647Z,14.30
2023-05-13T16:51:45.376Z,14.20
2023-05-13T16:56:37.040Z,14.10
2023-05-13T17:01:28.775Z,14.10
2023-05-13T17:06:20.520Z,14.10
2023-05-13T17:11:16.456Z,14.30
2023-05-13T17:16:09.318Z,14.50
2023-05-13T17:21:04.074Z,14.60
2023-05-13T17:25:56.015Z,14.40
2023-05-13T17:30:48.025Z,14.40
2023-05-13T17:35:39.854Z,14.30
2023-05-13T17:40:31.525Z,14.20
2023-05-13T17:45:23.438Z,14.00
2023-05-13T17:50:16.086Z,14.00
2023-05-13T17:55:08.564Z,13.90
2023-05-13T18:00:00.270Z,13.90
2023-05-13T18:04:52.449Z,13.90
2023-05-13T18:09:44.117Z,13.90
2023-05-13T18:14:35.804Z,13.70
2023-05-13T18:19:27.619Z,13.60
2023-05-13T18:24:19.339Z,13.70
2023-05-13T18:29:11.020Z,13.70
2023-05-13T18:34:03.248Z,13.60
2023-05-13T18:38:55.175Z,13.60
2023-05-13T18:43:47.069Z,13.70
2023-05-13T18:48:38.759Z,13.70
2023-05-13T18:53:30.451Z,13.60
2023-05-13T18:58:22.248Z,13.50
2023-05-13T19:03:14.253Z,13.40
2023-05-13T19:08:07.846Z,13.50
2023-05-13T19:12:59.542Z,13.40
2023-05-13T19:17:52.419Z,13.40
2023-05-13T19:22:44.806Z,13.40
2023-05-13T19:27:37.649Z,13.40
2023-05-13T19:32:29.770Z,13.40
2023-05-13T19:37:21.716Z,13.30
2023-05-13T19:42:15.339Z,13.30
2023-05-13T19:47:07.084Z,13.20
2023-05-13T19:51:58.908Z,13.30
2023-05-13T19:56:50.737Z,13.30
2023-05-13T20:01:42.596Z,13.30
2023-05-13T20:06:34.329Z,13.30
2023-05-13T20:11:26.363Z,13.40
2023-05-13T20:16:21.991Z,13.30
2023-05-13T20:21:13.713Z,13.30
2023-05-13T20:26:05.578Z,13.30
2023-05-13T20:30:57.318Z,13.30
2023-05-13T20:35:49.043Z,13.30
2023-05-13T20:40:41.258Z,13.30
2023-05-13T20:45:32.943Z,13.40
2023-05-13T20:50:28.676Z,13.50
2023-05-13T20:55:21.733Z,13.30
2023-05-13T21:00:14.340Z,13.30
2023-05-13T21:05:07.244Z,13.20
2023-05-13T21:09:58.950Z,13.20
2023-05-13T21:14:50.629Z,13.20
2023-05-13T21:19:42.345Z,13.10
2023-05-13T21:24:34.024Z,13.20
2023-05-13T21:29:25.710Z,13.00
2023-05-13T21:34:17.387Z,13.10
2023-05-13T21:39:11.010Z,13.10
2023-05-13T21:44:02.689Z,13.00
2023-05-13T21:48:54.512Z,13.10
2023-05-13T21:53:46.194Z,13.00
2023-05-13T21:58:37.869Z,13.00
2023-05-13T22:03:29.610Z,13.10
2023-05-13T22:08:21.901Z,13.00
2023-05-13T22:13:13.580Z,13.00
2023-05-13T22:18:05.487Z,12.90
2023-05-13T22:22:57.192Z,12.70
2023-05-13T22:27:50.804Z,12.80
2023-05-13T22:32:42.559Z,12.60
2023-05-13T22:37:34.259Z,12.60
2023-05-13T22:42:26.094Z,12.50
2023-05-13T22:47:17.756Z,12.40
2023-05-13T22:52:09.419Z,12.40
2023-05-13T22:57:01.088Z,12.40
2023-05-13T23:01:52.815Z,12.30
2023-05-13T23:06:44.561Z,12.20
2023-05-13T23:11:36.931Z,12.00
2023-05-13T23:16:28.667Z,12.00
2023-05-13T23:21:20.649Z,11.80
2023-05-13T23:26:12.337Z,11.80
2023-05-13T23:31:04.330Z,11.70
2023-05-13T23:35:56.432Z,11.60
2023-05-13T23:40:48.634Z,11.50
2023-05-13T23:45:40.633Z,11.30
2023-05-13T23:50:32.770Z,11.20
2023-05-13T23:55:24.503Z,11.10
